Time;durP1;ratioP1;P1;durP2;ratioP2;P2;SDS_P1;SDS_P2;PMS_P1;PMS_P2;Temp;Humidity;BMP_temperature;BMP_pressure;BME280_temperature;BME280_humidity;BME280_pressure;Samples;Min_cycle;Max_cycle;Signal;HPM_P1;HPM_P2
2021/03/17 00:03:27;;;;;;;24.43;18.57;;;;;;;5.18;84.19;100325.10;2837786;83;21440;-66
2021/03/17 00:07:30;;;;;;;21.70;14.60;;;;;;;5.20;84.20;100324.54;2811687;82;21176;-63
2021/03/17 00:11:33;;;;;;;25.62;17.07;;;;;;;5.18;83.94;100327.73;2851688;83;21174;-64
2021/03/17 00:15:40;;;;;;;21.33;15.18;;;;;;;5.15;84.07;100327.92;2852161;83;21202;-65
2021/03/17 00:19:42;;;;;;;;;;;;;;;5.12;84.18;100328.11;2855015;83;21111;-66
2021/03/17 00:23:45;;;;;;;26.57;16.45;;;;;;;5.11;84.40;100322.42;2852130;83;20183;-65
2021/03/17 00:27:49;;;;;;;26.37;14.93;;;;;;;5.07;84.51;100326.19;2851840;83;21400;-66
2021/03/17 00:31:53;;;;;;;25.95;17.12;;;;;;;5.07;84.73;100324.87;2851827;83;21159;-66
2021/03/17 00:35:56;;;;;;;18.20;14.15;;;;;;;5.09;84.90;100324.30;2852049;83;21167;-66
2021/03/17 00:40:00;;;;;;;28.95;13.08;;;;;;;5.06;84.84;100321.86;2851828;83;21513;-64
2021/03/17 00:44:03;;;;;;;19.12;13.70;;;;;;;5.07;84.84;100318.28;2851624;83;21584;-64
2021/03/17 00:48:08;;;;;;;22.82;15.93;;;;;;;4.99;84.81;100324.86;2827902;83;21234;-64
2021/03/17 00:52:10;;;;;;;22.65;13.95;;;;;;;5.04;84.90;100319.78;2803970;84;21176;-66
2021/03/17 00:56:14;;;;;;;23.77;17.48;;;;;;;5.02;85.05;100321.66;2804007;84;21165;-66
2021/03/17 01:00:20;;;;;;;19.75;14.10;;;;;;;5.09;85.20;100315.08;2803815;84;21635;-66
2021/03/17 01:04:23;;;;;;;23.00;15.18;;;;;;;5.10;84.90;100319.41;2804157;84;21168;-66
2021/03/17 01:08:26;;;;;;;10.93;8.75;;;;;;;5.11;84.84;100317.16;2803867;84;21212;-66
2021/03/17 01:12:29;;;;;;;15.65;12.60;;;;;;;5.09;84.91;100314.63;2804398;84;21108;-64
2021/03/17 01:16:32;;;;;;;13.08;10.18;;;;;;;5.11;84.98;100318.47;2804036;84;21141;-65
2021/03/17 01:20:37;;;;;;;15.03;10.32;;;;;;;5.13;84.72;100316.14;2803837;84;21141;-65
2021/03/17 01:24:40;;;;;;;17.10;9.58;;;;;;;5.13;84.50;100314.81;2803905;84;21160;-64
2021/03/17 01:28:43;;;;;;;15.88;9.68;;;;;;;5.15;84.69;100309.47;2803972;84;21141;-66
2021/03/17 01:32:46;;;;;;;11.53;8.55;;;;;;;5.15;84.53;100314.74;2803853;84;21180;-65
2021/03/17 01:36:52;;;;;;;19.62;12.65;;;;;;;5.09;84.46;100312.44;2803936;84;21619;-66
2021/03/17 01:40:56;;;;;;;16.57;11.55;;;;;;;5.09;84.45;100309.80;2803985;84;21181;-66
2021/03/17 01:44:59;;;;;;;14.03;8.80;;;;;;;5.10;84.45;100311.50;2803937;84;21129;-67
2021/03/17 01:49:02;;;;;;;15.23;10.32;;;;;;;5.08;84.50;100307.66;2804055;84;21202;-65
2021/03/17 01:53:10;;;;;;;12.03;10.00;;;;;;;5.08;84.62;100309.42;2827040;82;21188;-67
2021/03/17 01:57:13;;;;;;;13.43;8.28;;;;;;;5.03;84.75;100301.81;2901007;82;21161;-66
2021/03/17 02:01:16;;;;;;;14.68;10.13;;;;;;;5.05;85.04;100303.02;2902110;82;21567;-67
2021/03/17 02:05:26;;;;;;;13.83;9.45;;;;;;;5.04;84.96;100302.64;2902054;81;21316;-66
2021/03/17 02:09:29;;;;;;;16.12;10.80;;;;;;;5.03;84.94;100306.22;2902112;82;21160;-64
2021/03/17 02:14:02;;;;;;;9.10;6.37;;;;;;;5.02;84.84;100298.80;2901851;81;21200;-65
2021/03/17 02:18:12;;;;;;;12.70;9.88;;;;;;;4.98;84.96;100298.12;2901941;82;21141;-64
2021/03/17 02:22:46;;;;;;;13.10;8.23;;;;;;;4.99;84.91;100298.49;2897714;82;21158;-66
2021/03/17 02:27:45;;;;;;;15.68;10.75;;;;;;;4.97;84.87;100301.69;2901688;81;21145;-65
2021/03/17 02:31:56;;;;;;;11.12;10.00;;;;;;;4.94;85.06;100299.23;2902079;81;21136;-65
2021/03/17 02:36:17;;;;;;;13.50;8.45;;;;;;;4.96;85.25;100300.45;2901701;82;21486;-64
2021/03/17 02:40:33;;;;;;;14.58;8.10;;;;;;;4.98;85.17;100296.80;2902399;82;21160;-65
2021/03/17 02:44:47;;;;;;;12.03;8.10;;;;;;;4.98;85.18;100302.07;2906547;81;21133;-66
2021/03/17 02:49:04;;;;;;;9.08;6.37;;;;;;;4.97;85.15;100302.14;2853978;81;21616;-64
2021/03/17 02:53:08;;;;;;;;;;;;;;;4.98;85.31;100302.07;2863307;83;21604;-65
2021/03/17 02:57:16;;;;;;;9.83;8.25;;;;;;;4.96;85.17;100307.91;2861018;83;20199;-64
2021/03/17 03:01:21;;;;;;;13.22;8.88;;;;;;;4.98;85.21;100303.39;2860225;83;21162;-64
2021/03/17 03:05:27;;;;;;;12.80;8.58;;;;;;;4.96;85.28;100303.95;2860478;83;21103;-65
2021/03/17 03:09:30;;;;;;;20.30;10.78;;;;;;;4.96;85.25;100309.67;2861176;83;21186;-65
2021/03/17 03:13:35;;;;;;;17.42;12.73;;;;;;;4.96;85.43;100309.22;2860928;83;21166;-64
2021/03/17 03:17:40;;;;;;;17.50;12.98;;;;;;;4.96;85.39;100306.59;2859322;83;21098;-65
2021/03/17 03:21:45;;;;;;;15.85;12.07;;;;;;;4.98;85.21;100299.44;2860734;83;21170;-64
2021/03/17 03:25:51;;;;;;;18.92;14.73;;;;;;;4.98;85.30;100300.75;2860531;83;21194;-65
2021/03/17 03:29:56;;;;;;;11.90;7.85;;;;;;;4.98;85.07;100312.61;2860856;83;21190;-65
2021/03/17 03:34:01;;;;;;;15.28;9.80;;;;;;;4.98;85.00;100307.34;2860943;83;21166;-65
2021/03/17 03:38:07;;;;;;;14.25;8.28;;;;;;;4.96;85.19;100307.04;2860656;83;21167;-65
2021/03/17 03:42:19;;;;;;;11.03;9.13;;;;;;;4.95;85.16;100302.25;2996399;77;22679;-65
2021/03/17 03:46:22;;;;;;;11.73;7.97;;;;;;;4.91;85.19;100313.89;2951294;80;21157;-64
2021/03/17 03:50:28;;;;;;;14.85;9.55;;;;;;;4.90;85.41;100306.92;2904760;79;21607;-64
2021/03/17 03:54:54;;;;;;;9.77;6.63;;;;;;;4.87;85.39;100315.01;2898977;80;21191;-64
2021/03/17 03:59:14;;;;;;;14.98;9.75;;;;;;;4.85;85.44;100310.30;2904587;81;21144;-64
2021/03/17 04:03:19;;;;;;;12.37;8.88;;;;;;;4.86;85.57;100315.95;2901792;80;21156;-64
2021/03/17 04:07:24;;;;;;;15.25;9.63;;;;;;;4.87;85.38;100315.01;2900612;81;21149;-65
2021/03/17 04:11:27;;;;;;;11.57;8.33;;;;;;;4.90;85.44;100319.27;2862836;82;21152;-64
2021/03/17 04:15:34;;;;;;;10.35;9.28;;;;;;;4.86;85.30;100315.95;2904211;82;21595;-65
2021/03/17 04:19:41;;;;;;;15.78;10.13;;;;;;;4.81;85.21;100320.64;2904127;82;21160;-64
2021/03/17 04:23:47;;;;;;;17.65;11.22;;;;;;;4.77;85.27;100317.81;2904082;82;21144;-63
2021/03/17 04:27:52;;;;;;;14.87;10.58;;;;;;;4.71;85.38;100309.78;2874877;82;21614;-64
2021/03/17 04:31:57;;;;;;;16.40;9.10;;;;;;;4.69;85.47;100312.48;2904135;82;21602;-65
2021/03/17 04:36:01;;;;;;;14.68;10.93;;;;;;;4.68;85.81;100313.91;2903797;82;21145;-65
2021/03/17 04:40:07;;;;;;;15.95;10.85;;;;;;;4.70;85.88;100308.91;2899382;81;21159;-62
2021/03/17 04:44:13;;;;;;;16.97;10.47;;;;;;;4.65;85.88;100314.92;2899492;80;21137;-65
2021/03/17 04:48:17;;;;;;;15.85;9.73;;;;;;;4.62;86.15;100307.65;2873243;82;21194;-66
2021/03/17 04:52:24;;;;;;;15.93;12.20;;;;;;;4.57;86.17;100311.88;2888998;82;21552;-64
2021/03/17 04:56:28;;;;;;;;;;;;;;;4.62;86.24;100312.92;2895748;80;21201;-63
2021/03/17 05:00:32;;;;;;;21.02;13.88;;;;;;;4.64;86.14;100321.61;2892546;82;20176;-64
2021/03/17 05:04:38;;;;;;;24.18;16.67;;;;;;;4.61;86.22;100321.77;2849196;83;21607;-64
2021/03/17 05:08:44;;;;;;;20.92;14.28;;;;;;;4.56;86.28;100324.67;2873755;82;21161;-66
2021/03/17 05:12:48;;;;;;;29.20;20.20;;;;;;;4.50;86.45;100330.27;2899101;81;21145;-67
2021/03/17 05:16:52;;;;;;;44.77;31.68;;;;;;;4.45;86.45;100325.73;2892983;80;21136;-64
2021/03/17 05:20:56;;;;;;;35.28;25.02;;;;;;;4.42;86.63;100335.50;2870193;82;21133;-65
2021/03/17 05:25:05;;;;;;;38.30;22.70;;;;;;;4.45;86.62;100330.55;2885198;80;21547;-66
2021/03/17 05:29:06;;;;;;;34.43;25.27;;;;;;;4.44;86.84;100327.53;2873287;80;21615;-67
2021/03/17 05:33:11;;;;;;;28.98;21.35;;;;;;;4.47;86.68;100335.71;2894234;80;21117;-66
2021/03/17 05:37:16;;;;;;;21.75;15.70;;;;;;;4.42;86.58;100332.01;2856231;82;21113;-67
2021/03/17 05:41:20;;;;;;;33.15;20.97;;;;;;;4.39;86.87;100330.86;2886780;81;21591;-66
2021/03/17 05:45:23;;;;;;;25.80;17.20;;;;;;;4.46;87.06;100339.28;2898805;81;21149;-66
2021/03/17 05:49:28;;;;;;;27.60;19.07;;;;;;;4.40;87.10;100336.06;2867462;80;21714;-67
2021/03/17 05:53:33;;;;;;;22.37;14.75;;;;;;;4.41;87.30;100336.45;2898599;81;21678;-66
2021/03/17 05:57:41;;;;;;;31.95;20.35;;;;;;;4.43;87.54;100341.16;2898170;82;21433;-66
2021/03/17 06:01:47;;;;;;;27.22;18.95;;;;;;;4.49;87.64;100350.52;2898261;82;21511;-66
2021/03/17 06:05:51;;;;;;;34.40;15.70;;;;;;;4.49;87.43;100350.96;2898728;82;21145;-68
2021/03/17 06:09:56;;;;;;;22.95;15.15;;;;;;;4.47;87.65;100354.16;2898464;82;21588;-66
2021/03/17 06:14:03;;;;;;;21.48;14.60;;;;;;;4.48;87.59;100356.72;2898731;82;21161;-64
2021/03/17 06:18:16;;;;;;;22.05;16.27;;;;;;;4.51;87.62;100367.53;2898265;82;21431;-67
2021/03/17 06:22:20;;;;;;;34.83;23.57;;;;;;;4.51;87.33;100371.48;2898710;82;21185;-65
2021/03/17 06:26:24;;;;;;;29.35;19.20;;;;;;;4.45;87.13;100381.05;2868132;81;21178;-69
2021/03/17 06:30:27;;;;;;;27.82;17.20;;;;;;;4.45;87.35;100374.46;2849322;83;21191;-68
2021/03/17 06:34:30;;;;;;;26.87;16.93;;;;;;;4.47;87.57;100383.13;2849292;83;21179;-65
2021/03/17 06:38:33;;;;;;;24.45;15.50;;;;;;;4.51;87.61;100383.34;2849491;83;21154;-66
2021/03/17 06:42:41;;;;;;;28.42;21.40;;;;;;;4.53;87.46;100390.72;2848997;83;21146;-65
2021/03/17 06:46:43;;;;;;;26.97;17.65;;;;;;;4.57;87.23;100397.51;2849117;83;21640;-64
2021/03/17 06:51:08;;;;;;;15.63;12.45;;;;;;;4.54;87.23;100400.32;2849186;83;21182;-67
2021/03/17 06:55:20;;;;;;;28.45;14.85;;;;;;;4.48;87.03;100405.45;2849231;83;21522;-67
2021/03/17 06:59:23;;;;;;;19.85;14.60;;;;;;;4.31;86.24;100403.70;2849077;83;21139;-67
2021/03/17 07:03:26;;;;;;;19.73;12.20;;;;;;;4.08;85.94;100412.38;2848943;83;21131;-65
2021/03/17 07:07:29;;;;;;;19.82;12.00;;;;;;;3.98;86.31;100413.80;2849309;83;21135;-69
2021/03/17 07:11:32;;;;;;;21.93;13.62;;;;;;;3.94;86.36;100422.80;2849156;83;21601;-67
2021/03/17 07:15:37;;;;;;;21.02;15.30;;;;;;;3.86;86.57;100424.50;2848855;83;21531;-68
2021/03/17 07:19:41;;;;;;;17.37;11.87;;;;;;;3.80;86.49;100427.44;2849115;83;21159;-66
2021/03/17 07:27:57;;;;;;;24.52;17.00;;;;;;;3.75;86.84;100426.38;2996167;77;22324;-66
2021/03/17 07:32:00;;;;;;;36.93;23.35;;;;;;;3.67;86.84;100429.39;2950495;80;21524;-68
2021/03/17 07:36:04;;;;;;;93.95;49.30;;;;;;;3.69;86.77;100433.24;2950757;80;21632;-67
2021/03/17 07:40:09;;;;;;;44.60;26.95;;;;;;;3.70;86.72;100437.58;2951035;80;21138;-63
2021/03/17 07:44:14;;;;;;;24.65;14.18;;;;;;;3.72;86.47;100438.34;2950763;79;21197;-65
2021/03/17 07:48:20;;;;;;;30.08;18.92;;;;;;;3.80;86.47;100442.77;2945980;80;21226;-64
2021/03/17 07:52:27;;;;;;;26.45;15.40;;;;;;;3.88;86.38;100442.83;2899827;82;21090;-64
2021/03/17 07:56:31;;;;;;;17.02;12.88;;;;;;;3.88;85.87;100446.78;2899675;82;21461;-64
2021/03/17 08:00:38;;;;;;;15.63;13.28;;;;;;;3.87;86.16;100448.58;2899771;82;21169;-65
2021/03/17 08:04:41;;;;;;;;;;;;;;;3.95;86.45;100445.55;2932368;80;21164;-64
2021/03/17 08:08:46;;;;;;;14.35;12.75;;;;;;;3.96;85.63;100452.03;2951559;80;20210;-67
2021/03/17 08:12:50;;;;;;;31.07;18.35;;;;;;;4.02;85.89;100456.14;2951656;80;21169;-66
2021/03/17 08:16:54;;;;;;;20.15;14.58;;;;;;;3.98;85.63;100457.23;2951877;80;21164;-65
2021/03/17 08:20:59;;;;;;;26.15;19.35;;;;;;;3.96;85.65;100460.41;2951866;80;21090;-64
2021/03/17 08:25:03;;;;;;;21.87;14.53;;;;;;;3.99;85.84;100459.77;2951537;80;21588;-66
2021/03/17 08:29:11;;;;;;;21.33;11.73;;;;;;;3.97;85.82;100463.43;2951775;80;21722;-67
2021/03/17 08:33:42;;;;;;;11.93;10.23;;;;;;;4.04;85.95;100469.23;2951465;80;21615;-64
2021/03/17 08:37:56;;;;;;;30.50;19.40;;;;;;;4.08;85.40;100468.14;2951036;80;21161;-66
2021/03/17 08:42:17;;;;;;;32.00;23.52;;;;;;;4.06;85.76;100468.20;2951130;80;21129;-66
2021/03/17 08:46:21;;;;;;;24.72;15.85;;;;;;;4.06;85.60;100464.25;2933605;80;21169;-65
2021/03/17 08:50:30;;;;;;;55.58;30.95;;;;;;;4.04;85.64;100473.19;2947966;79;21448;-66
2021/03/17 08:54:41;;;;;;;44.93;26.68;;;;;;;4.05;85.70;100478.35;2904315;80;21619;-64
2021/03/17 08:58:44;;;;;;;31.20;21.57;;;;;;;4.00;85.65;100475.11;2899076;82;21113;-65
2021/03/17 09:02:51;;;;;;;22.73;17.00;;;;;;;3.90;85.76;100473.87;2869591;82;21584;-66
2021/03/17 09:07:07;;;;;;;20.72;14.58;;;;;;;3.93;86.10;100470.63;2898665;82;21177;-65
2021/03/17 09:11:10;;;;;;;24.80;18.02;;;;;;;4.02;86.58;100475.88;2898758;82;21146;-67
2021/03/17 09:15:17;;;;;;;24.12;18.12;;;;;;;4.06;86.37;100480.05;2898765;82;21446;-65
2021/03/17 09:19:19;;;;;;;;;;;;;;;4.09;86.12;100477.26;2901371;82;21122;-66
2021/03/17 09:23:29;;;;;;;21.25;15.88;;;;;;;4.06;85.97;100480.05;2898777;82;20182;-65
2021/03/17 09:27:37;;;;;;;22.62;17.30;;;;;;;4.03;86.19;100484.61;2903942;80;21144;-63
2021/03/17 09:31:40;;;;;;;26.25;18.73;;;;;;;4.07;86.51;100481.75;2907383;81;21098;-64
2021/03/17 09:36:11;;;;;;;18.35;14.70;;;;;;;4.09;86.52;100490.42;2908292;81;21181;-65
2021/03/17 09:40:16;;;;;;;24.02;16.77;;;;;;;4.12;86.32;100492.89;2908252;81;21156;-67
2021/03/17 09:44:29;;;;;;;18.52;13.45;;;;;;;4.18;86.41;100497.48;2996666;77;22927;-64
2021/03/17 09:48:32;;;;;;;20.88;16.65;;;;;;;4.13;86.42;100496.39;2943791;80;21165;-65
2021/03/17 09:52:44;;;;;;;26.15;18.15;;;;;;;4.11;86.55;100503.03;2899439;82;21146;-63
2021/03/17 09:56:50;;;;;;;26.12;17.52;;;;;;;4.11;86.74;100504.35;2900002;81;21157;-67
2021/03/17 10:00:56;;;;;;;17.57;11.73;;;;;;;4.19;86.51;100513.17;2899452;82;21612;-67
2021/03/17 10:05:02;;;;;;;17.00;13.15;;;;;;;4.23;86.46;100508.16;2899891;82;21141;-64
2021/03/17 10:09:07;;;;;;;16.50;11.22;;;;;;;4.30;86.81;100509.98;2899807;82;21671;-66
2021/03/17 10:13:15;;;;;;;14.33;10.03;;;;;;;4.31;86.69;100508.22;2899635;82;21542;-68
2021/03/17 10:17:22;;;;;;;10.55;7.90;;;;;;;4.43;87.04;100517.64;2899699;81;21555;-65
2021/03/17 10:21:28;;;;;;;13.78;10.05;;;;;;;4.51;86.75;100519.01;2899551;82;22225;-68
2021/03/17 10:25:31;;;;;;;14.75;9.73;;;;;;;4.57;86.41;100523.98;2899829;82;21127;-69
2021/03/17 10:29:35;;;;;;;29.80;21.02;;;;;;;4.59;86.53;100518.16;2899780;82;21145;-66
2021/03/17 10:33:38;;;;;;;27.37;18.42;;;;;;;4.66;86.75;100518.20;2899588;82;21169;-67
2021/03/17 10:37:41;;;;;;;35.05;24.43;;;;;;;4.75;87.10;100516.86;2900477;82;21113;-67
2021/03/17 10:41:46;;;;;;;27.93;18.35;;;;;;;4.87;87.28;100519.30;2899536;81;21152;-68
2021/03/17 10:45:52;;;;;;;25.02;18.20;;;;;;;5.06;87.35;100520.92;2899865;82;21571;-67
2021/03/17 10:49:56;;;;;;;;;;;;;;;5.15;86.64;100520.44;2902637;80;21129;-65
2021/03/17 10:53:58;;;;;;;26.73;16.15;;;;;;;5.26;87.09;100516.72;2905081;80;20183;-65
2021/03/17 10:58:17;;;;;;;19.48;14.33;;;;;;;5.43;87.01;100510.96;2946591;80;21200;-65
2021/03/17 11:02:31;;;;;;;24.90;17.23;;;;;;;5.62;86.85;100517.83;2946691;80;21122;-67
2021/03/17 11:06:35;;;;;;;18.75;16.40;;;;;;;5.83;86.76;100520.55;2947248;80;21130;-64
2021/03/17 11:10:57;;;;;;;26.12;17.92;;;;;;;6.05;86.34;100521.95;2946871;80;21488;-65
2021/03/17 11:14:59;;;;;;;17.77;13.32;;;;;;;6.13;85.46;100519.72;2947325;80;21157;-70
2021/03/17 11:19:12;;;;;;;22.75;15.85;;;;;;;6.13;84.54;100532.06;2946891;80;21129;-65
2021/03/17 11:23:26;;;;;;;21.23;14.55;;;;;;;6.10;84.75;100525.19;2946979;80;21149;-66
2021/03/17 11:27:30;;;;;;;23.92;17.50;;;;;;;6.11;84.74;100528.21;2946791;80;21106;-66
2021/03/17 11:31:36;;;;;;;20.55;15.45;;;;;;;5.93;84.16;100524.81;2946779;80;21164;-69
2021/03/17 11:35:43;;;;;;;26.57;17.20;;;;;;;5.74;84.36;100525.05;2946975;80;22256;-69
2021/03/17 11:39:46;;;;;;;24.15;14.03;;;;;;;5.58;85.14;100518.01;2946941;80;21137;-67
2021/03/17 11:43:49;;;;;;;21.42;15.83;;;;;;;5.47;85.47;100528.80;2946574;80;21169;-68
2021/03/17 11:47:54;;;;;;;23.90;16.97;;;;;;;5.38;86.18;100524.89;2946739;80;21150;-67
2021/03/17 11:51:57;;;;;;;27.32;17.00;;;;;;;5.39;86.67;100534.50;2946739;79;21165;-66
2021/03/17 11:56:01;;;;;;;22.15;16.05;;;;;;;5.45;86.80;100540.74;2946654;80;21141;-69
2021/03/17 12:00:06;;;;;;;30.15;19.70;;;;;;;5.67;87.62;100541.70;2946820;80;21173;-66
2021/03/17 12:04:10;;;;;;;37.78;22.48;;;;;;;5.95;86.76;100539.27;2918214;80;21149;-70
2021/03/17 12:08:15;;;;;;;34.57;20.67;;;;;;;6.20;84.01;100541.34;2888744;82;21122;-69
2021/03/17 12:12:18;;;;;;;39.88;21.10;;;;;;;6.37;80.82;100538.14;2846788;82;21544;-69
2021/03/17 12:16:21;;;;;;;29.02;21.60;;;;;;;6.54;80.16;100538.45;2846875;82;21130;-66
2021/03/17 12:20:28;;;;;;;30.37;16.00;;;;;;;6.63;78.82;100552.42;2846785;83;21121;-67
2021/03/17 12:24:33;;;;;;;34.65;20.88;;;;;;;6.62;77.12;100554.69;2917749;80;21596;-68
2021/03/17 12:28:36;;;;;;;36.30;20.77;;;;;;;6.61;77.68;100552.98;2950992;80;21157;-68
2021/03/17 12:32:40;;;;;;;28.15;17.75;;;;;;;6.61;78.61;100560.91;2950639;80;21145;-65
2021/03/17 12:36:43;;;;;;;27.48;19.85;;;;;;;6.62;78.51;100556.00;2950559;80;21596;-64
2021/03/17 12:40:47;;;;;;;27.80;18.23;;;;;;;6.66;78.79;100556.68;2950622;80;21161;-65
2021/03/17 12:44:50;;;;;;;24.82;17.20;;;;;;;6.71;78.58;100547.98;2955380;80;21173;-69
2021/03/17 12:48:54;;;;;;;27.13;16.52;;;;;;;6.87;77.46;100555.81;2956269;79;21398;-65
2021/03/17 12:52:57;;;;;;;24.20;15.23;;;;;;;6.98;77.18;100553.36;2956317;80;21169;-67
2021/03/17 12:57:01;;;;;;;22.70;15.20;;;;;;;7.15;75.48;100551.45;2956682;80;21165;-66
2021/03/17 13:01:04;;;;;;;21.30;11.68;;;;;;;7.29;74.65;100555.41;2956447;80;21221;-65
2021/03/17 13:05:09;;;;;;;13.95;10.93;;;;;;;7.48;73.92;100551.58;2956389;80;21157;-71
2021/03/17 13:09:13;;;;;;;17.43;11.30;;;;;;;7.64;72.51;100551.88;2956814;80;21508;-64
2021/03/17 13:13:16;;;;;;;17.23;12.50;;;;;;;7.70;70.33;100552.81;2956335;80;21153;-67
2021/03/17 13:17:21;;;;;;;21.68;14.13;;;;;;;7.73;70.29;100559.23;2956285;80;21631;-65
2021/03/17 13:21:25;;;;;;;23.40;13.62;;;;;;;7.72;70.21;100557.05;2956237;80;21098;-68
2021/03/17 13:25:30;;;;;;;18.98;13.10;;;;;;;7.67;70.82;100555.18;2956223;80;21134;-70
2021/03/17 13:29:33;;;;;;;17.45;11.68;;;;;;;7.69;71.22;100552.45;2956238;80;21178;-66
2021/03/17 13:33:37;;;;;;;17.65;11.00;;;;;;;7.70;70.10;100552.81;2955761;80;21157;-70
2021/03/17 13:37:41;;;;;;;15.00;10.72;;;;;;;7.66;70.07;100559.23;2956115;80;21161;-67
2021/03/17 13:41:50;;;;;;;14.25;10.85;;;;;;;7.56;68.85;100563.83;2956019;80;21144;-66
2021/03/17 13:46:03;;;;;;;13.43;9.65;;;;;;;7.52;69.12;100564.11;2950590;80;21630;-70
2021/03/17 13:50:12;;;;;;;18.15;10.50;;;;;;;7.48;68.33;100569.23;2950364;79;21508;-66
2021/03/17 13:54:21;;;;;;;17.40;10.85;;;;;;;7.49;68.27;100573.13;2898354;82;21655;-68
2021/03/17 13:58:24;;;;;;;16.02;11.90;;;;;;;7.52;68.19;100566.77;2902639;80;21165;-65
2021/03/17 14:02:29;;;;;;;18.67;12.20;;;;;;;7.53;69.30;100570.65;2858245;82;21164;-64
2021/03/17 14:06:33;;;;;;;20.43;12.35;;;;;;;7.50;69.22;100577.47;2853524;83;21152;-65
2021/03/17 14:10:37;;;;;;;19.00;13.65;;;;;;;7.55;69.74;100568.75;2853555;83;21148;-66
2021/03/17 14:14:42;;;;;;;16.97;12.70;;;;;;;7.56;68.80;100571.77;2853208;83;21144;-65
2021/03/17 14:18:45;;;;;;;24.02;15.93;;;;;;;7.63;68.45;100575.33;2853511;82;21144;-65
2021/03/17 14:22:48;;;;;;;18.07;13.43;;;;;;;7.61;68.99;100563.99;2853760;82;21173;-70
2021/03/17 14:26:52;;;;;;;17.92;13.25;;;;;;;7.42;67.58;100559.43;2871723;80;21169;-65
2021/03/17 14:30:55;;;;;;;19.27;13.88;;;;;;;7.43;68.50;100568.20;2897923;80;21113;-65
2021/03/17 14:34:59;;;;;;;21.68;13.68;;;;;;;7.64;69.19;100562.00;2893342;82;21178;-65
2021/03/17 14:39:03;;;;;;;18.32;11.95;;;;;;;7.86;68.39;100557.48;2895007;82;21176;-66
2021/03/17 14:43:07;;;;;;;18.92;12.85;;;;;;;8.02;67.44;100549.81;2898666;81;21192;-65
2021/03/17 14:47:11;;;;;;;19.62;11.48;;;;;;;8.27;68.26;100552.16;2905476;81;21143;-66
2021/03/17 14:51:14;;;;;;;20.70;10.10;;;;;;;8.49;67.25;100550.69;2905256;81;21157;-70
2021/03/17 14:55:19;;;;;;;8.03;6.75;;;;;;;8.70;65.55;100558.50;2925230;80;21157;-67
2021/03/17 14:59:22;;;;;;;13.75;8.85;;;;;;;8.88;63.10;100563.48;2950459;80;21592;-64
2021/03/17 15:03:26;;;;;;;13.38;9.15;;;;;;;8.93;61.92;100563.13;2950431;80;21165;-64
2021/03/17 15:07:31;;;;;;;14.58;9.40;;;;;;;8.91;63.55;100563.26;2950737;80;21701;-64
2021/03/17 15:11:35;;;;;;;12.53;8.73;;;;;;;8.84;63.31;100559.32;2935230;80;21180;-63
2021/03/17 15:15:38;;;;;;;19.67;13.13;;;;;;;8.73;64.49;100559.24;2906701;81;22082;-64
2021/03/17 15:19:42;;;;;;;19.30;13.28;;;;;;;8.75;64.68;100558.66;2904785;80;21145;-63
2021/03/17 15:23:45;;;;;;;15.32;10.25;;;;;;;8.70;64.41;100558.50;2902565;81;21615;-64
2021/03/17 15:27:48;;;;;;;10.98;8.73;;;;;;;8.79;65.57;100566.30;2906605;81;21340;-64
2021/03/17 15:31:52;;;;;;;19.37;11.90;;;;;;;8.83;64.58;100569.56;2906370;81;21140;-64
2021/03/17 15:35:56;;;;;;;14.83;9.38;;;;;;;8.89;66.51;100565.17;2906269;81;21141;-66
2021/03/17 15:39:59;;;;;;;19.17;11.80;;;;;;;8.98;66.90;100573.80;2893505;81;21603;-66
2021/03/17 15:44:06;;;;;;;18.12;13.28;;;;;;;8.95;67.06;100578.00;2902604;81;21148;-63
2021/03/17 15:48:09;;;;;;;19.12;14.13;;;;;;;8.73;66.27;100579.97;2896252;81;21657;-64
2021/03/17 15:52:12;;;;;;;20.52;12.53;;;;;;;8.51;67.39;100586.75;2898661;82;21596;-68
2021/03/17 15:56:17;;;;;;;16.50;10.40;;;;;;;8.33;67.51;100592.81;2901623;80;21129;-68
2021/03/17 16:00:23;;;;;;;14.38;10.23;;;;;;;8.14;69.27;100594.05;2902840;82;21603;-64
2021/03/17 16:04:32;;;;;;;13.83;9.17;;;;;;;7.98;68.94;100598.20;2903339;81;21650;-67
2021/03/17 16:08:31;;;;;;;15.18;8.98;;;;;;;7.89;67.92;100605.91;2915975;80;21372;-65
2021/03/17 16:12:37;;;;;;;12.45;8.53;;;;;;;7.79;69.89;100606.48;2898286;80;21125;-65
2021/03/17 16:16:41;;;;;;;16.80;7.90;;;;;;;7.58;68.24;100613.55;2898297;81;21125;-65
2021/03/17 16:20:44;;;;;;;11.70;7.92;;;;;;;7.49;68.43;100614.16;2883033;80;22255;-65
2021/03/17 16:24:47;;;;;;;10.45;7.37;;;;;;;7.40;68.66;100615.59;2950654;80;21603;-68
2021/03/17 16:28:53;;;;;;;9.20;6.80;;;;;;;7.27;68.68;100624.78;2947486;80;21627;-66
2021/03/17 16:33:00;;;;;;;9.80;5.62;;;;;;;7.12;70.15;100630.53;2895624;82;21177;-66
2021/03/17 16:37:05;;;;;;;7.40;5.97;;;;;;;7.00;70.73;100625.52;2897383;81;21145;-65
2021/03/17 16:41:10;;;;;;;18.87;8.15;;;;;;;6.97;71.05;100625.72;2888575;81;21149;-64
2021/03/17 16:45:14;;;;;;;8.78;5.95;;;;;;;7.03;70.95;100628.92;2898714;81;21181;-65
2021/03/17 16:49:17;;;;;;;11.63;8.90;;;;;;;7.04;70.95;100634.13;2897921;80;21141;-65
2021/03/17 16:53:20;;;;;;;13.70;8.18;;;;;;;7.02;70.29;100641.31;2896808;82;21177;-66
2021/03/17 16:57:23;;;;;;;9.65;6.97;;;;;;;6.97;70.66;100652.62;2897021;81;21122;-65
2021/03/17 17:01:26;;;;;;;18.30;13.08;;;;;;;6.84;71.13;100653.84;2897197;80;21682;-66
2021/03/17 17:05:29;;;;;;;16.05;9.78;;;;;;;6.76;71.48;100652.14;2897350;82;21674;-66
2021/03/17 17:09:32;;;;;;;31.42;15.03;;;;;;;6.72;71.83;100652.79;2924730;80;21126;-65
2021/03/17 17:13:35;;;;;;;22.27;14.80;;;;;;;6.63;71.39;100654.19;2950949;80;21145;-65
2021/03/17 17:17:38;;;;;;;17.87;12.18;;;;;;;6.55;71.32;100660.41;2904033;80;21552;-65
2021/03/17 17:21:42;;;;;;;16.52;10.08;;;;;;;6.48;71.10;100665.66;2897662;80;21126;-66
2021/03/17 17:25:45;;;;;;;13.15;10.78;;;;;;;6.38;71.67;100666.22;2896533;82;21157;-64
2021/03/17 17:29:49;;;;;;;21.77;12.73;;;;;;;6.29;71.74;100667.59;2896343;82;21140;-66
2021/03/17 17:33:52;;;;;;;24.27;15.05;;;;;;;6.19;72.11;100669.54;2896778;80;21157;-66
2021/03/17 17:37:58;;;;;;;23.83;17.27;;;;;;;6.13;72.76;100675.56;2896564;82;21189;-65
2021/03/17 17:42:01;;;;;;;18.80;10.97;;;;;;;6.12;73.69;100676.96;2896943;82;21592;-66
2021/03/17 17:46:05;;;;;;;20.68;13.80;;;;;;;6.05;74.67;100676.94;2896411;81;21130;-65
2021/03/17 17:50:12;;;;;;;23.50;17.17;;;;;;;5.95;74.90;100687.14;2896918;82;21179;-65
2021/03/17 17:54:15;;;;;;;30.25;20.35;;;;;;;5.89;75.23;100688.33;2897144;80;21146;-65
2021/03/17 17:58:18;;;;;;;24.18;14.40;;;;;;;5.96;75.37;100694.12;2896599;82;21122;-66
2021/03/17 18:02:22;;;;;;;21.90;14.25;;;;;;;6.07;74.97;100700.15;2897039;80;21158;-66
2021/03/17 18:06:25;;;;;;;47.83;32.30;;;;;;;6.10;74.29;100700.84;2897604;80;21929;-65
2021/03/17 18:10:30;;;;;;;50.45;33.58;;;;;;;6.07;74.29;100704.11;2897544;81;21165;-65
2021/03/17 18:14:35;;;;;;;25.62;16.10;;;;;;;5.95;74.71;100706.94;2896579;81;21082;-66
2021/03/17 18:18:38;;;;;;;29.25;19.17;;;;;;;5.88;75.32;100706.88;2896373;82;21145;-65
2021/03/17 18:22:41;;;;;;;26.48;17.05;;;;;;;5.84;75.99;100707.54;2896148;82;21118;-66
2021/03/17 18:26:44;;;;;;;33.73;18.75;;;;;;;5.83;76.54;100712.44;2896144;82;21186;-65
2021/03/17 18:30:49;;;;;;;33.78;21.23;;;;;;;5.88;76.84;100713.03;2897484;80;21169;-63
2021/03/17 18:35:14;;;;;;;37.10;25.48;;;;;;;5.89;77.11;100714.73;2896168;82;21146;-64
2021/03/17 18:39:18;;;;;;;41.53;24.60;;;;;;;5.92;76.90;100716.36;2802018;84;21725;-65
2021/03/17 18:43:21;;;;;;;54.45;33.55;;;;;;;5.99;77.46;100715.06;2778135;85;21148;-64
2021/03/17 18:47:24;;;;;;;44.65;27.60;;;;;;;6.01;76.78;100718.50;2803292;84;21611;-65
2021/03/17 18:51:27;;;;;;;88.30;49.75;;;;;;;6.06;76.93;100721.73;2823016;83;21164;-65
2021/03/17 18:55:36;;;;;;;54.38;36.30;;;;;;;6.06;76.53;100727.02;2826603;84;21623;-66
2021/03/17 18:59:41;;;;;;;50.25;28.62;;;;;;;6.01;76.84;100729.06;2822339;84;21176;-64
2021/03/17 19:03:44;;;;;;;35.13;24.37;;;;;;;6.02;76.90;100732.09;2826695;84;21164;-64